In Rescue
 
Open Full Screen Window  High Contrast Mode
Wind Gusting 00 knots
03
September 18, 2020 11:37 PM EDT
Weather Information
Wind Direction
  240 °
Wind Speed
  03 kt (3 mph)
Wind Gust
  00 kt (0 mph)
Altimeter
30.40 in
Visibility
10 SM
Temperature
01° C
34° F
Dewpoint
-02° C
28° F
Humidity
81%
1hr Rain Fall
00.00 in.
24hr Rain Fall
00.00 in.
Sky Condition
Clear
VFR

METAR KOSC 190337Z AUTO 24003KT 10SM CLR 01/M02 A3040 RMK AO2 T00071016

FAA Disclaimer: The data displayed is for advisory purposes only and is not to be used for flight planning or operations.